Morning Sun, Ohio
Current Conditions -  °F | °C
As of 6:55 AM on Saturday 25 Oct 2014 (Local Time) from KMWO Reporting Station
Haze Haze  
Wind Chill: 43°   Ceiling: Unl
Heat Index: 43°   Visibility: 3mi
Dew Point: 40°   Wind: 0mph
Humidity: 90%   Direction: NA
Pressure: 30"   Gusts: NA
Location:  39.6252°N, 84.6611°W
Report Text: KMWO 251055Z AUTO 00000KT 3SM BR CLR 06/05 A3000 RMK AO2 T00610045
Loading
Personal Weather Stations






























Interactive Weather Map
Tropical Storm Tracking
New forecast layout! Learn more

10-Day Weather Forecast

Advertisements
Track Severe Weather on mobile